createdAt,value
2018-06-30T00:00:45.320Z,23.91
2018-06-30T00:03:13.495Z,23.84
2018-06-30T00:05:41.595Z,23.84
2018-06-30T00:08:09.871Z,23.86
2018-06-30T00:10:38.258Z,23.79
2018-06-30T00:13:06.565Z,23.77
2018-06-30T00:15:34.638Z,23.77
2018-06-30T00:18:02.727Z,23.71
2018-06-30T00:20:30.806Z,23.67
2018-06-30T00:22:58.884Z,23.67
2018-06-30T00:25:26.978Z,23.60
2018-06-30T00:27:56.231Z,23.54
2018-06-30T00:30:24.961Z,23.51
2018-06-30T00:32:53.172Z,23.51
2018-06-30T00:35:21.242Z,23.50
2018-06-30T00:37:49.327Z,23.48
2018-06-30T00:40:17.424Z,23.41
2018-06-30T00:42:45.699Z,23.44
2018-06-30T00:45:13.835Z,23.44
2018-06-30T00:47:41.914Z,23.40
2018-06-30T00:50:09.996Z,23.31
2018-06-30T00:52:38.215Z,23.31
2018-06-30T00:55:06.284Z,23.29
2018-06-30T00:57:34.368Z,23.22
2018-06-30T01:00:02.450Z,23.22
2018-06-30T01:02:30.547Z,23.25
2018-06-30T01:04:58.762Z,23.25
2018-06-30T01:07:26.831Z,23.26
2018-06-30T01:09:55.103Z,23.28
2018-06-30T01:12:23.190Z,23.21
2018-06-30T01:14:51.282Z,23.20
2018-06-30T01:17:19.544Z,23.16
2018-06-30T01:19:47.676Z,23.09
2018-06-30T01:22:15.771Z,23.11
2018-06-30T01:24:43.858Z,23.03
2018-06-30T01:27:12.976Z,23.04
2018-06-30T01:29:41.051Z,23.00
2018-06-30T01:32:09.120Z,22.93
2018-06-30T01:34:37.203Z,22.89
2018-06-30T01:37:05.279Z,22.98
2018-06-30T01:39:33.395Z,22.82
2018-06-30T01:42:01.532Z,22.81
2018-06-30T01:44:29.637Z,22.83
2018-06-30T01:46:57.891Z,22.74
2018-06-30T01:49:25.998Z,22.67
2018-06-30T01:51:54.111Z,22.67
2018-06-30T01:54:22.183Z,22.65
2018-06-30T01:56:50.249Z,22.63
2018-06-30T01:59:18.358Z,22.57
2018-06-30T02:01:46.474Z,22.59
2018-06-30T02:04:14.563Z,22.62
2018-06-30T02:06:42.635Z,22.60
2018-06-30T02:09:11.642Z,22.58
2018-06-30T02:11:40.114Z,22.53
2018-06-30T02:14:08.915Z,22.48
2018-06-30T02:16:36.982Z,22.48
2018-06-30T02:19:05.063Z,22.54
2018-06-30T02:21:33.176Z,22.45
2018-06-30T02:24:01.240Z,22.32
2018-06-30T02:26:29.320Z,22.30
2018-06-30T02:28:57.409Z,22.25
2018-06-30T02:31:25.483Z,22.19
2018-06-30T02:33:53.576Z,22.29
2018-06-30T02:36:21.640Z,22.18
2018-06-30T02:38:49.734Z,21.99
2018-06-30T02:41:17.838Z,21.83
2018-06-30T02:43:46.169Z,22.08
2018-06-30T02:46:14.266Z,22.11
2018-06-30T02:48:42.340Z,21.94
2018-06-30T02:51:10.423Z,21.88
2018-06-30T02:53:38.491Z,21.87
2018-06-30T02:56:06.578Z,21.82
2018-06-30T02:58:34.643Z,21.93
2018-06-30T03:01:02.714Z,21.86
2018-06-30T03:03:30.775Z,21.89
2018-06-30T03:05:58.839Z,21.66
2018-06-30T03:08:26.898Z,21.64
2018-06-30T03:10:55.093Z,21.64
2018-06-30T03:13:23.219Z,21.57
2018-06-30T03:15:51.379Z,21.65
2018-06-30T03:18:19.479Z,21.59
2018-06-30T03:20:47.558Z,21.60
2018-06-30T03:23:15.631Z,21.53
2018-06-30T03:25:43.703Z,21.51
2018-06-30T03:28:11.767Z,21.53
2018-06-30T03:30:39.901Z,21.50
2018-06-30T03:33:07.982Z,21.47
2018-06-30T03:35:36.176Z,21.44
2018-06-30T03:38:04.273Z,21.42
2018-06-30T03:40:32.363Z,21.39
2018-06-30T03:43:00.447Z,21.40
2018-06-30T03:45:28.537Z,21.39
2018-06-30T03:47:56.600Z,21.37
2018-06-30T03:50:24.685Z,21.36
2018-06-30T03:52:52.787Z,21.31
2018-06-30T03:55:20.858Z,21.30
2018-06-30T03:57:48.946Z,21.33
2018-06-30T04:00:17.020Z,21.31
2018-06-30T04:02:45.296Z,21.30
2018-06-30T04:05:13.362Z,21.30
2018-06-30T04:07:41.436Z,21.25
2018-06-30T04:10:09.528Z,21.16
2018-06-30T04:12:37.607Z,21.23
2018-06-30T04:15:06.199Z,21.23
2018-06-30T04:17:34.348Z,21.17
2018-06-30T04:20:02.417Z,21.13
2018-06-30T04:22:30.550Z,21.08
2018-06-30T04:24:58.619Z,21.07
2018-06-30T04:27:26.707Z,21.13
2018-06-30T04:29:54.826Z,21.17
2018-06-30T04:32:22.971Z,21.15
2018-06-30T04:34:51.032Z,21.21
2018-06-30T04:37:19.119Z,21.26
2018-06-30T04:39:47.191Z,21.23
2018-06-30T04:42:15.278Z,21.20
2018-06-30T04:44:43.352Z,21.18
2018-06-30T04:47:11.456Z,21.17
2018-06-30T04:49:39.608Z,21.11
2018-06-30T04:52:07.759Z,21.16
2018-06-30T04:54:35.823Z,21.17
2018-06-30T04:57:03.904Z,21.12
2018-06-30T04:59:31.991Z,21.14
2018-06-30T05:02:00.064Z,21.14
2018-06-30T05:04:28.134Z,21.23
2018-06-30T05:06:56.209Z,21.27
2018-06-30T05:09:24.302Z,21.30
2018-06-30T05:11:52.647Z,21.31
2018-06-30T05:14:20.724Z,21.39
2018-06-30T05:16:48.878Z,21.39
2018-06-30T05:19:16.966Z,21.49
2018-06-30T05:21:45.081Z,21.55
2018-06-30T05:24:13.204Z,21.66
2018-06-30T05:26:41.281Z,21.77
2018-06-30T05:29:09.347Z,21.86
2018-06-30T05:31:37.423Z,21.95
2018-06-30T05:34:05.662Z,22.01
2018-06-30T05:36:33.751Z,22.04
2018-06-30T05:39:01.863Z,22.09
2018-06-30T05:41:29.954Z,22.11
2018-06-30T05:43:58.052Z,22.25
2018-06-30T05:46:26.152Z,22.34
2018-06-30T05:48:54.247Z,22.45
2018-06-30T05:51:22.320Z,22.52
2018-06-30T05:53:50.467Z,22.63
2018-06-30T05:56:18.550Z,22.68
2018-06-30T05:58:46.620Z,22.70
2018-06-30T06:01:14.738Z,22.72
2018-06-30T06:03:42.800Z,22.73
2018-06-30T06:06:10.918Z,22.75
2018-06-30T06:08:38.982Z,22.84
2018-06-30T06:11:07.060Z,22.86
2018-06-30T06:13:35.134Z,22.93
2018-06-30T06:16:03.207Z,22.96
2018-06-30T06:18:31.287Z,22.96
2018-06-30T06:20:59.395Z,23.01
2018-06-30T06:23:27.483Z,23.11
2018-06-30T06:25:55.658Z,23.20
2018-06-30T06:28:23.679Z,23.29
2018-06-30T06:30:51.775Z,23.40
2018-06-30T06:33:19.831Z,23.39
2018-06-30T06:35:47.923Z,23.49
2018-06-30T06:38:16.002Z,23.59
2018-06-30T06:40:44.083Z,23.52
2018-06-30T06:43:12.223Z,23.53
2018-06-30T06:45:40.427Z,23.41
2018-06-30T06:48:08.586Z,23.48
2018-06-30T06:50:36.656Z,23.44
2018-06-30T06:53:05.231Z,23.47
2018-06-30T06:55:33.439Z,23.52
2018-06-30T06:58:01.665Z,23.60
2018-06-30T07:00:30.145Z,23.75
2018-06-30T07:02:58.282Z,23.89
2018-06-30T07:05:26.371Z,24.02
2018-06-30T07:07:54.480Z,24.03
2018-06-30T07:10:22.600Z,24.02
2018-06-30T07:12:50.687Z,24.13
2018-06-30T07:15:18.816Z,24.12
2018-06-30T07:17:47.007Z,24.24
2018-06-30T07:20:15.115Z,24.25
2018-06-30T07:22:43.202Z,24.38
2018-06-30T07:25:11.350Z,24.45
2018-06-30T07:27:39.535Z,24.40
2018-06-30T07:30:07.746Z,24.46
2018-06-30T07:32:35.831Z,24.53
2018-06-30T07:35:04.274Z,24.70
2018-06-30T07:37:32.371Z,24.82
2018-06-30T07:40:00.455Z,24.93
2018-06-30T07:42:28.627Z,24.80
2018-06-30T07:44:56.773Z,24.90
2018-06-30T07:47:24.883Z,24.99
2018-06-30T07:49:52.955Z,24.93
2018-06-30T07:52:21.125Z,24.92
2018-06-30T07:54:55.650Z,24.92
2018-06-30T07:57:23.855Z,24.99
2018-06-30T07:59:51.968Z,24.98
2018-06-30T08:02:20.023Z,24.98
2018-06-30T08:04:48.110Z,25.02
2018-06-30T08:07:16.271Z,25.04
2018-06-30T08:09:44.339Z,25.00
2018-06-30T08:12:12.420Z,25.08
2018-06-30T08:14:40.502Z,25.14
2018-06-30T08:17:08.659Z,25.28
2018-06-30T08:19:36.755Z,25.38
2018-06-30T08:22:04.852Z,25.21
2018-06-30T08:24:32.979Z,25.38
2018-06-30T08:27:01.152Z,25.44
2018-06-30T08:29:29.245Z,25.50
2018-06-30T08:31:57.447Z,25.53
2018-06-30T08:34:25.596Z,25.46
2018-06-30T08:36:53.654Z,25.58
2018-06-30T08:39:21.839Z,25.67
2018-06-30T08:41:49.922Z,25.73
2018-06-30T08:44:18.032Z,25.80
2018-06-30T08:46:46.103Z,25.92
2018-06-30T08:49:14.211Z,25.96
2018-06-30T08:51:42.280Z,25.98
2018-06-30T08:54:10.355Z,26.06
2018-06-30T08:56:38.660Z,26.06
2018-06-30T08:59:06.743Z,26.07
2018-06-30T09:01:34.810Z,26.09
2018-06-30T09:04:02.876Z,26.18
2018-06-30T09:06:31.050Z,26.24
2018-06-30T09:08:59.245Z,26.27
2018-06-30T09:11:27.336Z,26.28
2018-06-30T09:13:55.411Z,26.31
2018-06-30T09:16:23.523Z,26.36
2018-06-30T09:18:51.617Z,26.44
2018-06-30T09:21:19.725Z,26.44
2018-06-30T09:23:47.827Z,26.48
2018-06-30T09:26:15.943Z,26.40
2018-06-30T09:28:44.045Z,26.40
2018-06-30T09:31:12.133Z,26.39
2018-06-30T09:33:40.241Z,26.49
2018-06-30T09:36:08.336Z,26.58
2018-06-30T09:38:36.425Z,26.67
2018-06-30T09:41:04.536Z,26.78
2018-06-30T09:43:32.627Z,26.66
2018-06-30T09:46:00.707Z,26.86
2018-06-30T09:48:28.820Z,26.97
2018-06-30T09:50:56.975Z,26.99
2018-06-30T09:53:25.079Z,27.10
2018-06-30T09:55:53.152Z,27.15
2018-06-30T09:58:21.246Z,27.11
2018-06-30T10:00:50.392Z,27.20
2018-06-30T10:03:18.664Z,27.34
2018-06-30T10:05:46.737Z,27.40
2018-06-30T10:08:14.846Z,27.49
2018-06-30T10:10:42.936Z,27.60
2018-06-30T10:13:18.573Z,27.69
2018-06-30T10:15:47.567Z,27.56
2018-06-30T10:18:15.643Z,27.64
2018-06-30T10:20:43.715Z,27.65
2018-06-30T10:23:11.779Z,27.59
2018-06-30T10:25:39.863Z,27.50
2018-06-30T10:28:08.002Z,27.55
2018-06-30T10:30:36.393Z,27.45
2018-06-30T10:33:04.435Z,27.44
2018-06-30T10:35:34.727Z,27.47
2018-06-30T10:38:03.506Z,27.59
2018-06-30T10:40:31.599Z,27.69
2018-06-30T10:42:59.823Z,27.61
2018-06-30T10:45:28.158Z,27.62
2018-06-30T10:47:56.326Z,27.74
2018-06-30T10:50:24.392Z,27.72
2018-06-30T10:52:52.491Z,27.81
2018-06-30T10:55:20.598Z,27.80
2018-06-30T10:57:48.643Z,27.86
2018-06-30T11:00:16.847Z,27.92
2018-06-30T11:02:44.873Z,27.92
2018-06-30T11:05:13.062Z,27.86
2018-06-30T11:07:41.116Z,27.80
2018-06-30T11:10:09.631Z,27.85
2018-06-30T11:12:37.863Z,27.88
2018-06-30T11:15:06.340Z,27.91
2018-06-30T11:17:34.471Z,27.80
2018-06-30T11:20:02.658Z,27.81
2018-06-30T11:22:30.795Z,27.91
2018-06-30T11:24:58.867Z,28.06
2018-06-30T11:27:26.961Z,28.05
2018-06-30T11:29:55.040Z,27.97
2018-06-30T11:32:23.107Z,27.90
2018-06-30T11:34:51.330Z,27.87
2018-06-30T11:37:19.395Z,27.87
2018-06-30T11:39:47.491Z,27.91
2018-06-30T11:42:15.576Z,28.07
2018-06-30T11:44:43.659Z,28.14
2018-06-30T11:47:11.751Z,28.10
2018-06-30T11:49:39.850Z,28.21
2018-06-30T11:52:07.926Z,28.29
2018-06-30T11:54:36.016Z,28.23
2018-06-30T11:57:04.116Z,28.16
2018-06-30T11:59:32.242Z,28.29
2018-06-30T12:02:00.384Z,28.33
2018-06-30T12:04:28.406Z,28.30
2018-06-30T12:06:56.476Z,28.34
2018-06-30T12:09:24.623Z,28.37
2018-06-30T12:11:52.620Z,28.50
2018-06-30T12:14:20.693Z,28.65
2018-06-30T12:16:48.772Z,28.58
2018-06-30T12:19:16.876Z,28.55
2018-06-30T12:21:44.961Z,28.54
2018-06-30T12:24:13.030Z,28.57
2018-06-30T12:26:41.148Z,28.47
2018-06-30T12:29:09.507Z,28.58
2018-06-30T12:31:37.626Z,28.61
2018-06-30T12:34:05.788Z,28.60
2018-06-30T12:36:33.910Z,28.61
2018-06-30T12:39:02.026Z,28.65
2018-06-30T12:41:30.083Z,28.52
2018-06-30T12:43:58.169Z,28.44
2018-06-30T12:46:26.241Z,28.58
2018-06-30T12:48:54.308Z,28.54
2018-06-30T12:51:22.380Z,28.67
2018-06-30T12:53:50.469Z,28.70
2018-06-30T12:56:18.732Z,28.60
2018-06-30T12:58:46.795Z,28.53
2018-06-30T13:01:14.870Z,28.46
2018-06-30T13:03:42.997Z,28.64
2018-06-30T13:06:11.239Z,28.69
2018-06-30T13:08:39.356Z,28.65
2018-06-30T13:11:07.434Z,28.61
2018-06-30T13:13:35.499Z,28.66
2018-06-30T13:16:03.574Z,28.79
2018-06-30T13:18:31.645Z,28.80
2018-06-30T13:20:59.748Z,28.88
2018-06-30T13:23:27.847Z,28.95
2018-06-30T13:25:55.968Z,28.92
2018-06-30T13:28:24.047Z,28.99
2018-06-30T13:30:52.142Z,28.98
2018-06-30T13:33:20.255Z,28.90
2018-06-30T13:35:48.321Z,28.99
2018-06-30T13:38:16.402Z,29.01
2018-06-30T13:40:44.507Z,28.95
2018-06-30T13:43:12.586Z,28.95
2018-06-30T13:45:41.559Z,28.95
2018-06-30T13:48:10.845Z,29.02
2018-06-30T13:50:39.204Z,28.92
2018-06-30T13:53:07.553Z,28.98
2018-06-30T13:55:35.718Z,29.19
2018-06-30T13:58:03.844Z,29.16
2018-06-30T14:00:32.026Z,29.15
2018-06-30T14:03:00.187Z,28.99
2018-06-30T14:05:28.283Z,29.16
2018-06-30T14:07:56.381Z,29.21
2018-06-30T14:10:24.445Z,29.11
2018-06-30T14:12:52.535Z,29.11
2018-06-30T14:15:20.666Z,29.07
2018-06-30T14:17:48.722Z,29.16
2018-06-30T14:20:16.786Z,29.16
2018-06-30T14:22:44.911Z,29.22
2018-06-30T14:25:13.051Z,29.27
2018-06-30T14:27:41.132Z,29.35
2018-06-30T14:30:10.728Z,29.35
2018-06-30T14:32:38.839Z,29.39
2018-06-30T14:35:07.363Z,29.38
2018-06-30T14:37:35.472Z,29.23
2018-06-30T14:40:03.617Z,29.19
2018-06-30T14:42:31.706Z,29.14
2018-06-30T14:44:59.816Z,29.16
2018-06-30T14:47:27.900Z,29.16
2018-06-30T14:49:55.973Z,29.29
2018-06-30T14:52:24.280Z,29.28
2018-06-30T14:54:52.426Z,29.30
2018-06-30T14:57:20.530Z,29.33
2018-06-30T14:59:49.492Z,29.36
2018-06-30T15:02:17.597Z,29.45
2018-06-30T15:04:45.895Z,29.54
2018-06-30T15:07:13.943Z,29.57
2018-06-30T15:09:42.044Z,29.66
2018-06-30T15:12:10.206Z,29.74
2018-06-30T15:14:38.331Z,29.70
2018-06-30T15:17:06.403Z,29.61
2018-06-30T15:19:34.534Z,29.60
2018-06-30T15:22:02.591Z,29.67
2018-06-30T15:24:30.754Z,29.77
2018-06-30T15:26:58.891Z,29.72
2018-06-30T15:29:26.947Z,29.56
2018-06-30T15:31:55.020Z,29.36
2018-06-30T15:34:23.078Z,29.34
2018-06-30T15:36:51.177Z,29.39
2018-06-30T15:39:19.265Z,29.28
2018-06-30T15:41:47.353Z,29.32
2018-06-30T15:44:15.431Z,29.37
2018-06-30T15:46:43.512Z,29.35
2018-06-30T15:49:11.626Z,29.34
2018-06-30T15:51:39.709Z,29.37
2018-06-30T15:54:07.796Z,29.35
2018-06-30T15:56:35.907Z,29.37
2018-06-30T15:59:04.060Z,29.32
2018-06-30T16:01:32.095Z,29.32
2018-06-30T16:04:00.167Z,29.39
2018-06-30T16:06:28.289Z,29.52
2018-06-30T16:08:56.614Z,29.38
2018-06-30T16:11:25.043Z,29.44
2018-06-30T16:13:53.147Z,29.57
2018-06-30T16:16:21.269Z,29.63
2018-06-30T16:18:49.293Z,29.66
2018-06-30T16:21:17.443Z,29.61
2018-06-30T16:23:45.531Z,29.59
2018-06-30T16:26:13.668Z,29.71
2018-06-30T16:28:41.867Z,29.66
2018-06-30T16:31:09.976Z,29.70
2018-06-30T16:33:38.051Z,29.69
2018-06-30T16:36:06.152Z,29.72
2018-06-30T16:38:34.280Z,29.70
2018-06-30T16:41:02.552Z,29.82
2018-06-30T16:43:30.667Z,29.65
2018-06-30T16:45:58.763Z,29.58
2018-06-30T16:48:26.873Z,29.67
2018-06-30T16:50:54.979Z,29.94
2018-06-30T16:53:23.179Z,29.98
2018-06-30T16:55:51.243Z,30.25
2018-06-30T16:58:19.344Z,30.36
2018-06-30T17:00:47.420Z,30.67
2018-06-30T17:03:15.541Z,31.10
2018-06-30T17:05:43.722Z,31.28
2018-06-30T17:08:11.802Z,31.45
2018-06-30T17:10:39.867Z,31.73
2018-06-30T17:13:07.943Z,31.84
2018-06-30T17:15:36.024Z,31.58
2018-06-30T17:18:04.101Z,31.77
2018-06-30T17:20:32.179Z,32.04
2018-06-30T17:23:00.299Z,32.23
2018-06-30T17:25:28.368Z,32.22
2018-06-30T17:27:56.450Z,32.21
2018-06-30T17:30:24.523Z,32.02
2018-06-30T17:32:52.600Z,31.86
2018-06-30T17:35:20.695Z,31.93
2018-06-30T17:37:48.780Z,31.86
2018-06-30T17:40:16.857Z,31.76
2018-06-30T17:42:44.975Z,31.74
2018-06-30T17:45:13.077Z,31.76
2018-06-30T17:47:41.196Z,31.75
2018-06-30T17:50:09.365Z,31.43
2018-06-30T17:52:37.515Z,31.04
2018-06-30T17:55:05.631Z,30.70
2018-06-30T17:57:33.721Z,30.34
2018-06-30T18:00:01.848Z,29.86
2018-06-30T18:02:30.098Z,29.67
2018-06-30T18:04:58.247Z,29.52
2018-06-30T18:07:28.101Z,29.32
2018-06-30T18:09:56.917Z,28.96
2018-06-30T18:12:26.181Z,28.89
2018-06-30T18:14:54.962Z,28.71
2018-06-30T18:17:23.389Z,28.48
2018-06-30T18:19:51.853Z,28.23
2018-06-30T18:22:19.985Z,28.26
2018-06-30T18:24:48.427Z,28.13
2018-06-30T18:27:17.624Z,27.99
2018-06-30T18:29:46.861Z,27.89
2018-06-30T18:32:14.998Z,27.77
2018-06-30T18:34:44.740Z,27.65
2018-06-30T18:37:13.005Z,27.63
2018-06-30T18:39:41.725Z,27.56
2018-06-30T18:42:09.864Z,27.40
2018-06-30T18:44:39.975Z,27.29
2018-06-30T18:47:09.850Z,27.21
2018-06-30T18:49:38.234Z,27.04
2018-06-30T18:52:09.778Z,27.03
2018-06-30T18:54:39.070Z,27.02
2018-06-30T18:57:11.158Z,26.97
2018-06-30T18:59:40.334Z,26.81
2018-06-30T19:02:10.561Z,26.66
2018-06-30T19:04:38.966Z,26.56
2018-06-30T19:07:07.730Z,26.57
2018-06-30T19:09:36.459Z,26.46
2018-06-30T19:12:05.552Z,26.37
2018-06-30T19:14:34.890Z,26.29
2018-06-30T19:17:04.096Z,26.23
2018-06-30T19:19:32.343Z,26.11
2018-06-30T19:22:01.189Z,25.96
2018-06-30T19:24:29.985Z,25.87
2018-06-30T19:26:59.586Z,25.67
2018-06-30T19:29:27.773Z,25.64
2018-06-30T19:31:56.764Z,25.59
2018-06-30T19:34:26.018Z,25.49
2018-06-30T19:36:54.146Z,25.36
2018-06-30T19:39:22.539Z,25.31
2018-06-30T19:41:50.990Z,25.19
2018-06-30T19:44:19.200Z,25.12
2018-06-30T19:46:47.465Z,25.00
2018-06-30T19:49:16.126Z,24.98
2018-06-30T19:51:44.830Z,24.81
2018-06-30T19:54:13.564Z,24.69
2018-06-30T19:56:41.940Z,24.60
2018-06-30T19:59:12.227Z,24.52
2018-06-30T20:01:41.889Z,24.46
2018-06-30T20:04:10.580Z,24.44
2018-06-30T20:06:39.547Z,24.30
2018-06-30T20:09:09.319Z,24.17
2018-06-30T20:11:51.993Z,24.12
2018-06-30T20:14:23.769Z,24.03
2018-06-30T20:17:02.425Z,23.99
2018-06-30T20:19:37.399Z,23.91
2018-06-30T20:22:07.461Z,23.78
2018-06-30T20:24:44.215Z,23.68
2018-06-30T20:27:13.403Z,23.47
2018-06-30T20:29:48.935Z,23.38
2018-06-30T20:32:29.163Z,23.37
2018-06-30T20:34:57.641Z,23.23
2018-06-30T20:37:26.808Z,23.20
2018-06-30T20:39:55.400Z,23.03
2018-06-30T20:42:23.535Z,22.99
2018-06-30T20:44:52.270Z,22.91
2018-06-30T20:47:20.406Z,22.75
2018-06-30T20:49:49.664Z,22.73
2018-06-30T20:52:18.686Z,22.71
2018-06-30T20:54:46.831Z,22.66
2018-06-30T20:57:15.058Z,22.65
2018-06-30T20:59:43.398Z,22.53
2018-06-30T21:02:11.540Z,22.50
2018-06-30T21:04:39.792Z,22.38
2018-06-30T21:07:07.975Z,22.35
2018-06-30T21:09:36.562Z,22.25
2018-06-30T21:12:04.825Z,22.16
2018-06-30T21:14:35.077Z,22.10
2018-06-30T21:17:03.855Z,22.07
2018-06-30T21:19:33.385Z,22.04
2018-06-30T21:22:01.608Z,21.99
2018-06-30T21:24:30.483Z,21.83
2018-06-30T21:26:58.673Z,21.84
2018-06-30T21:29:27.398Z,21.75
2018-06-30T21:31:55.573Z,21.65
2018-06-30T21:34:23.823Z,21.63
2018-06-30T21:36:52.163Z,21.59
2018-06-30T21:39:21.776Z,21.59
2018-06-30T21:41:51.483Z,21.53
2018-06-30T21:44:19.653Z,21.47
2018-06-30T21:46:47.800Z,21.38
2018-06-30T21:49:15.930Z,21.30
2018-06-30T21:51:44.073Z,21.28
2018-06-30T21:54:12.322Z,21.30
2018-06-30T21:56:40.456Z,21.20
2018-06-30T21:59:08.839Z,21.18
2018-06-30T22:01:37.395Z,21.14
2018-06-30T22:04:05.792Z,21.05
2018-06-30T22:06:33.930Z,21.02
2018-06-30T22:09:02.063Z,20.96
2018-06-30T22:11:30.344Z,20.97
2018-06-30T22:13:58.471Z,20.94
2018-06-30T22:16:26.853Z,20.91
2018-06-30T22:18:54.972Z,20.87
2018-06-30T22:21:23.623Z,20.78
2018-06-30T22:23:51.703Z,20.81
2018-06-30T22:26:19.834Z,20.81
2018-06-30T22:28:47.916Z,20.72
2018-06-30T22:31:16.015Z,20.58
2018-06-30T22:33:44.101Z,20.56
2018-06-30T22:36:12.184Z,20.47
2018-06-30T22:38:40.283Z,20.45
2018-06-30T22:41:08.382Z,20.42
2018-06-30T22:43:37.562Z,20.43
2018-06-30T22:46:06.023Z,20.39
2018-06-30T22:48:34.106Z,20.28
2018-06-30T22:51:02.196Z,20.29
2018-06-30T22:53:30.264Z,20.22
2018-06-30T22:55:58.334Z,20.16
2018-06-30T22:58:26.439Z,20.14
2018-06-30T23:00:54.568Z,20.14
2018-06-30T23:03:22.651Z,20.08
2018-06-30T23:05:50.744Z,20.08
2018-06-30T23:08:18.865Z,19.96
2018-06-30T23:10:46.940Z,19.91
2018-06-30T23:13:15.015Z,19.91
2018-06-30T23:15:43.096Z,19.78
2018-06-30T23:18:11.333Z,19.79
2018-06-30T23:20:39.434Z,19.66
2018-06-30T23:23:08.544Z,19.69
2018-06-30T23:25:37.254Z,19.59
2018-06-30T23:28:05.397Z,19.63
2018-06-30T23:30:33.789Z,19.61
2018-06-30T23:33:01.885Z,19.59
2018-06-30T23:35:30.969Z,19.53
2018-06-30T23:37:59.949Z,19.57
2018-06-30T23:40:28.059Z,19.48
2018-06-30T23:42:56.124Z,19.41
2018-06-30T23:45:24.580Z,19.38
2018-06-30T23:47:53.475Z,19.33
2018-06-30T23:50:21.843Z,19.28
2018-06-30T23:52:49.906Z,19.23
2018-06-30T23:55:17.983Z,19.26
2018-06-30T23:57:46.043Z,19.21
